sensor_id;sensor_type;location;lat;lon;timestamp;temperature;humidity
49042;DHT22;34859;51.608;11.462;2023-08-17T00:01:31;20.90;99.90
49042;DHT22;34859;51.608;11.462;2023-08-17T00:03:58;20.80;99.90
49042;DHT22;34859;51.608;11.462;2023-08-17T00:06:24;20.80;99.90
49042;DHT22;34859;51.608;11.462;2023-08-17T00:08:51;20.80;99.90
49042;DHT22;34859;51.608;11.462;2023-08-17T00:11:23;20.80;99.90
49042;DHT22;34859;51.608;11.462;2023-08-17T00:13:49;20.70;99.90
49042;DHT22;34859;51.608;11.462;2023-08-17T00:16:14;20.70;99.90
49042;DHT22;34859;51.608;11.462;2023-08-17T00:18:40;20.70;99.90
49042;DHT22;34859;51.608;11.462;2023-08-17T00:21:07;20.70;99.90
49042;DHT22;34859;51.608;11.462;2023-08-17T00:23:33;20.60;99.90
49042;DHT22;34859;51.608;11.462;2023-08-17T00:25:59;20.60;99.90
49042;DHT22;34859;51.608;11.462;2023-08-17T00:28:24;20.60;99.90
49042;DHT22;34859;51.608;11.462;2023-08-17T00:30:51;20.60;99.90
49042;DHT22;34859;51.608;11.462;2023-08-17T00:33:17;20.60;99.90
49042;DHT22;34859;51.608;11.462;2023-08-17T00:35:42;20.60;99.90
49042;DHT22;34859;51.608;11.462;2023-08-17T00:38:10;20.60;99.90
49042;DHT22;34859;51.608;11.462;2023-08-17T00:40:37;20.60;99.90
49042;DHT22;34859;51.608;11.462;2023-08-17T00:43:04;20.60;99.90
49042;DHT22;34859;51.608;11.462;2023-08-17T00:45:35;20.60;99.90
49042;DHT22;34859;51.608;11.462;2023-08-17T00:48:00;20.60;99.90
49042;DHT22;34859;51.608;11.462;2023-08-17T00:50:28;20.60;99.90
49042;DHT22;34859;51.608;11.462;2023-08-17T00:52:56;20.60;99.90
49042;DHT22;34859;51.608;11.462;2023-08-17T00:55:22;20.60;99.90
49042;DHT22;34859;51.608;11.462;2023-08-17T00:57:47;20.60;99.90
49042;DHT22;34859;51.608;11.462;2023-08-17T01:00:14;20.60;99.90
49042;DHT22;34859;51.608;11.462;2023-08-17T01:02:41;20.60;99.90
49042;DHT22;34859;51.608;11.462;2023-08-17T01:05:08;20.60;99.90
49042;DHT22;34859;51.608;11.462;2023-08-17T01:07:33;20.60;99.90
49042;DHT22;34859;51.608;11.462;2023-08-17T01:09:59;20.60;99.90
49042;DHT22;34859;51.608;11.462;2023-08-17T01:12:38;20.50;99.90
49042;DHT22;34859;51.608;11.462;2023-08-17T01:18:04;20.10;99.90
49042;DHT22;34859;51.608;11.462;2023-08-17T01:20:30;20.00;99.90
49042;DHT22;34859;51.608;11.462;2023-08-17T01:23:05;19.90;99.90
49042;DHT22;34859;51.608;11.462;2023-08-17T01:25:31;19.80;99.90
49042;DHT22;34859;51.608;11.462;2023-08-17T01:28:21;19.70;99.90
49042;DHT22;34859;51.608;11.462;2023-08-17T01:33:31;19.50;99.90
49042;DHT22;34859;51.608;11.462;2023-08-17T01:36:06;19.40;99.90
49042;DHT22;34859;51.608;11.462;2023-08-17T01:38:40;19.40;99.90
49042;DHT22;34859;51.608;11.462;2023-08-17T01:41:09;19.30;99.90
49042;DHT22;34859;51.608;11.462;2023-08-17T01:43:44;19.40;99.90
49042;DHT22;34859;51.608;11.462;2023-08-17T01:46:15;19.50;99.90
49042;DHT22;34859;51.608;11.462;2023-08-17T01:48:42;19.50;99.90
49042;DHT22;34859;51.608;11.462;2023-08-17T01:51:09;19.40;99.90
49042;DHT22;34859;51.608;11.462;2023-08-17T01:53:35;19.40;99.90
49042;DHT22;34859;51.608;11.462;2023-08-17T01:56:01;19.40;99.90
49042;DHT22;34859;51.608;11.462;2023-08-17T01:58:30;19.40;99.90
49042;DHT22;34859;51.608;11.462;2023-08-17T02:00:57;19.40;99.90
49042;DHT22;34859;51.608;11.462;2023-08-17T02:03:23;19.50;99.90
49042;DHT22;34859;51.608;11.462;2023-08-17T02:05:48;19.50;99.90
49042;DHT22;34859;51.608;11.462;2023-08-17T02:08:14;19.40;99.90
49042;DHT22;34859;51.608;11.462;2023-08-17T02:11:00;19.40;99.90
49042;DHT22;34859;51.608;11.462;2023-08-17T02:13:28;19.40;99.90
49042;DHT22;34859;51.608;11.462;2023-08-17T02:15:53;19.40;99.90
49042;DHT22;34859;51.608;11.462;2023-08-17T02:18:19;19.30;99.90
49042;DHT22;34859;51.608;11.462;2023-08-17T02:20:45;19.40;99.90
49042;DHT22;34859;51.608;11.462;2023-08-17T02:23:11;19.30;99.90
49042;DHT22;34859;51.608;11.462;2023-08-17T02:25:40;19.30;99.90
49042;DHT22;34859;51.608;11.462;2023-08-17T02:28:07;19.30;99.90
49042;DHT22;34859;51.608;11.462;2023-08-17T02:30:33;19.30;99.90
49042;DHT22;34859;51.608;11.462;2023-08-17T02:32:58;19.30;99.90
49042;DHT22;34859;51.608;11.462;2023-08-17T02:35:24;19.30;99.90
49042;DHT22;34859;51.608;11.462;2023-08-17T02:37:50;19.30;99.90
49042;DHT22;34859;51.608;11.462;2023-08-17T02:40:19;19.30;99.90
49042;DHT22;34859;51.608;11.462;2023-08-17T02:42:45;19.30;99.90
49042;DHT22;34859;51.608;11.462;2023-08-17T02:45:10;19.30;99.90
49042;DHT22;34859;51.608;11.462;2023-08-17T02:47:37;19.30;99.90
49042;DHT22;34859;51.608;11.462;2023-08-17T02:50:03;19.30;99.90
49042;DHT22;34859;51.608;11.462;2023-08-17T02:52:29;19.40;99.90
49042;DHT22;34859;51.608;11.462;2023-08-17T02:54:54;19.30;99.90
49042;DHT22;34859;51.608;11.462;2023-08-17T02:57:20;19.30;99.90
49042;DHT22;34859;51.608;11.462;2023-08-17T02:59:47;19.30;99.90
49042;DHT22;34859;51.608;11.462;2023-08-17T03:02:12;19.30;99.90
49042;DHT22;34859;51.608;11.462;2023-08-17T03:04:38;19.20;99.90
49042;DHT22;34859;51.608;11.462;2023-08-17T03:07:04;19.20;99.90
49042;DHT22;34859;51.608;11.462;2023-08-17T03:09:31;19.20;99.90
49042;DHT22;34859;51.608;11.462;2023-08-17T03:11:57;19.20;99.90
49042;DHT22;34859;51.608;11.462;2023-08-17T03:14:23;19.20;99.90
49042;DHT22;34859;51.608;11.462;2023-08-17T03:16:48;19.20;99.90
49042;DHT22;34859;51.608;11.462;2023-08-17T03:19:14;19.20;99.90
49042;DHT22;34859;51.608;11.462;2023-08-17T03:21:40;19.20;99.90
49042;DHT22;34859;51.608;11.462;2023-08-17T03:24:09;19.20;99.90
49042;DHT22;34859;51.608;11.462;2023-08-17T03:26:35;19.20;99.90
49042;DHT22;34859;51.608;11.462;2023-08-17T03:29:00;19.20;99.90
49042;DHT22;34859;51.608;11.462;2023-08-17T03:31:28;19.20;99.90
49042;DHT22;34859;51.608;11.462;2023-08-17T03:33:54;19.20;99.90
49042;DHT22;34859;51.608;11.462;2023-08-17T03:36:26;19.20;99.90
49042;DHT22;34859;51.608;11.462;2023-08-17T03:38:52;19.20;99.90
49042;DHT22;34859;51.608;11.462;2023-08-17T03:41:18;19.20;99.90
49042;DHT22;34859;51.608;11.462;2023-08-17T03:43:44;19.20;99.90
49042;DHT22;34859;51.608;11.462;2023-08-17T03:46:10;19.20;99.90
49042;DHT22;34859;51.608;11.462;2023-08-17T03:48:37;19.30;99.90
49042;DHT22;34859;51.608;11.462;2023-08-17T03:51:02;19.30;99.90
49042;DHT22;34859;51.608;11.462;2023-08-17T03:53:29;19.20;99.90
49042;DHT22;34859;51.608;11.462;2023-08-17T03:55:57;19.30;99.90
49042;DHT22;34859;51.608;11.462;2023-08-17T03:58:23;19.30;99.90
49042;DHT22;34859;51.608;11.462;2023-08-17T04:00:52;19.30;99.90
49042;DHT22;34859;51.608;11.462;2023-08-17T04:03:19;19.20;99.90
49042;DHT22;34859;51.608;11.462;2023-08-17T04:05:45;19.30;99.90
49042;DHT22;34859;51.608;11.462;2023-08-17T04:08:11;19.30;99.90
49042;DHT22;34859;51.608;11.462;2023-08-17T04:10:37;19.30;99.90
49042;DHT22;34859;51.608;11.462;2023-08-17T04:13:22;19.20;99.90
49042;DHT22;34859;51.608;11.462;2023-08-17T04:16:08;19.20;99.90
49042;DHT22;34859;51.608;11.462;2023-08-17T04:18:54;19.20;99.90
49042;DHT22;34859;51.608;11.462;2023-08-17T04:21:39;19.20;99.90
49042;DHT22;34859;51.608;11.462;2023-08-17T04:24:25;19.20;99.90
49042;DHT22;34859;51.608;11.462;2023-08-17T04:27:11;19.20;99.90
49042;DHT22;34859;51.608;11.462;2023-08-17T04:29:38;19.20;99.90
49042;DHT22;34859;51.608;11.462;2023-08-17T04:32:04;19.20;99.90
49042;DHT22;34859;51.608;11.462;2023-08-17T04:34:30;19.20;99.90
49042;DHT22;34859;51.608;11.462;2023-08-17T04:36:59;19.30;99.90
49042;DHT22;34859;51.608;11.462;2023-08-17T04:39:28;19.30;99.90
49042;DHT22;34859;51.608;11.462;2023-08-17T04:41:54;19.20;99.90
49042;DHT22;34859;51.608;11.462;2023-08-17T04:44:20;19.30;99.90
49042;DHT22;34859;51.608;11.462;2023-08-17T04:46:45;19.30;99.90
49042;DHT22;34859;51.608;11.462;2023-08-17T04:49:11;19.20;99.90
49042;DHT22;34859;51.608;11.462;2023-08-17T04:51:37;19.20;99.90
49042;DHT22;34859;51.608;11.462;2023-08-17T04:54:03;19.20;99.90
49042;DHT22;34859;51.608;11.462;2023-08-17T04:56:29;19.20;99.90
49042;DHT22;34859;51.608;11.462;2023-08-17T04:58:54;19.20;99.90
49042;DHT22;34859;51.608;11.462;2023-08-17T05:01:20;19.20;99.90
49042;DHT22;34859;51.608;11.462;2023-08-17T05:03:47;19.20;99.90
49042;DHT22;34859;51.608;11.462;2023-08-17T05:06:13;19.10;99.90
49042;DHT22;34859;51.608;11.462;2023-08-17T05:08:39;19.10;99.90
49042;DHT22;34859;51.608;11.462;2023-08-17T05:11:05;19.10;99.90
49042;DHT22;34859;51.608;11.462;2023-08-17T05:13:31;19.10;99.90
49042;DHT22;34859;51.608;11.462;2023-08-17T05:15:57;19.10;99.90
49042;DHT22;34859;51.608;11.462;2023-08-17T05:18:23;19.10;99.90
49042;DHT22;34859;51.608;11.462;2023-08-17T05:20:50;19.10;99.90
49042;DHT22;34859;51.608;11.462;2023-08-17T05:23:16;19.10;99.90
49042;DHT22;34859;51.608;11.462;2023-08-17T05:25:41;19.10;99.90
49042;DHT22;34859;51.608;11.462;2023-08-17T05:28:11;19.10;99.90
49042;DHT22;34859;51.608;11.462;2023-08-17T05:30:37;19.10;99.90
49042;DHT22;34859;51.608;11.462;2023-08-17T05:33:03;19.10;99.90
49042;DHT22;34859;51.608;11.462;2023-08-17T05:35:29;19.10;99.90
49042;DHT22;34859;51.608;11.462;2023-08-17T05:37:54;19.20;99.90
49042;DHT22;34859;51.608;11.462;2023-08-17T05:40:20;19.20;99.90
49042;DHT22;34859;51.608;11.462;2023-08-17T05:42:50;19.20;99.90
49042;DHT22;34859;51.608;11.462;2023-08-17T05:45:17;19.30;99.90
49042;DHT22;34859;51.608;11.462;2023-08-17T05:47:43;19.30;99.90
49042;DHT22;34859;51.608;11.462;2023-08-17T05:50:08;19.30;99.90
49042;DHT22;34859;51.608;11.462;2023-08-17T05:52:54;19.30;99.90
49042;DHT22;34859;51.608;11.462;2023-08-17T05:55:40;19.40;99.90
49042;DHT22;34859;51.608;11.462;2023-08-17T05:58:07;19.40;99.90
49042;DHT22;34859;51.608;11.462;2023-08-17T06:00:33;19.30;99.90
49042;DHT22;34859;51.608;11.462;2023-08-17T06:02:58;19.40;99.90
49042;DHT22;34859;51.608;11.462;2023-08-17T06:05:28;19.50;99.90
49042;DHT22;34859;51.608;11.462;2023-08-17T06:07:57;19.50;99.90
49042;DHT22;34859;51.608;11.462;2023-08-17T06:10:24;19.40;99.90
49042;DHT22;34859;51.608;11.462;2023-08-17T06:12:53;19.40;99.90
49042;DHT22;34859;51.608;11.462;2023-08-17T06:15:19;19.40;99.90
49042;DHT22;34859;51.608;11.462;2023-08-17T06:17:44;19.40;99.90
49042;DHT22;34859;51.608;11.462;2023-08-17T06:20:11;19.50;99.90
49042;DHT22;34859;51.608;11.462;2023-08-17T06:22:37;19.50;99.90
49042;DHT22;34859;51.608;11.462;2023-08-17T06:25:04;19.50;99.90
49042;DHT22;34859;51.608;11.462;2023-08-17T06:27:30;19.50;99.90
49042;DHT22;34859;51.608;11.462;2023-08-17T06:29:57;19.60;99.90
49042;DHT22;34859;51.608;11.462;2023-08-17T06:32:23;19.60;99.90
49042;DHT22;34859;51.608;11.462;2023-08-17T06:34:49;19.60;99.90
49042;DHT22;34859;51.608;11.462;2023-08-17T06:37:14;19.70;99.90
49042;DHT22;34859;51.608;11.462;2023-08-17T06:39:40;19.70;99.90
49042;DHT22;34859;51.608;11.462;2023-08-17T06:42:08;19.70;99.90
49042;DHT22;34859;51.608;11.462;2023-08-17T06:44:34;19.70;99.90
49042;DHT22;34859;51.608;11.462;2023-08-17T06:46:59;19.70;99.90
49042;DHT22;34859;51.608;11.462;2023-08-17T06:49:26;19.70;99.90
49042;DHT22;34859;51.608;11.462;2023-08-17T06:51:52;19.80;99.90
49042;DHT22;34859;51.608;11.462;2023-08-17T06:54:17;19.80;99.90
49042;DHT22;34859;51.608;11.462;2023-08-17T06:56:43;19.80;99.90
49042;DHT22;34859;51.608;11.462;2023-08-17T06:59:11;19.80;99.90
49042;DHT22;34859;51.608;11.462;2023-08-17T07:01:37;19.90;99.90
49042;DHT22;34859;51.608;11.462;2023-08-17T07:04:03;19.90;99.90
49042;DHT22;34859;51.608;11.462;2023-08-17T07:06:30;20.00;99.90
49042;DHT22;34859;51.608;11.462;2023-08-17T07:08:57;20.00;99.90
49042;DHT22;34859;51.608;11.462;2023-08-17T07:11:23;20.00;99.90
49042;DHT22;34859;51.608;11.462;2023-08-17T07:13:48;20.00;99.90
49042;DHT22;34859;51.608;11.462;2023-08-17T07:16:14;20.00;99.90
49042;DHT22;34859;51.608;11.462;2023-08-17T07:18:40;20.10;99.90
49042;DHT22;34859;51.608;11.462;2023-08-17T07:21:11;20.10;99.90
49042;DHT22;34859;51.608;11.462;2023-08-17T07:23:37;20.10;99.90
49042;DHT22;34859;51.608;11.462;2023-08-17T07:26:03;20.20;99.90
49042;DHT22;34859;51.608;11.462;2023-08-17T07:28:30;20.30;99.90
49042;DHT22;34859;51.608;11.462;2023-08-17T07:30:57;20.30;99.90
49042;DHT22;34859;51.608;11.462;2023-08-17T07:33:22;20.30;99.90
49042;DHT22;34859;51.608;11.462;2023-08-17T07:35:48;20.30;99.90
49042;DHT22;34859;51.608;11.462;2023-08-17T07:38:14;20.30;99.90
49042;DHT22;34859;51.608;11.462;2023-08-17T07:40:39;20.30;99.90
49042;DHT22;34859;51.608;11.462;2023-08-17T07:43:05;20.30;99.90
49042;DHT22;34859;51.608;11.462;2023-08-17T07:45:31;20.40;99.90
49042;DHT22;34859;51.608;11.462;2023-08-17T07:47:57;20.40;99.90
49042;DHT22;34859;51.608;11.462;2023-08-17T07:50:22;20.40;99.90
49042;DHT22;34859;51.608;11.462;2023-08-17T07:52:48;20.40;99.90
49042;DHT22;34859;51.608;11.462;2023-08-17T07:55:14;20.30;99.90
49042;DHT22;34859;51.608;11.462;2023-08-17T07:57:39;20.30;99.90
49042;DHT22;34859;51.608;11.462;2023-08-17T08:00:07;20.30;99.90
49042;DHT22;34859;51.608;11.462;2023-08-17T08:02:33;20.30;99.90
49042;DHT22;34859;51.608;11.462;2023-08-17T08:04:58;20.30;99.90
49042;DHT22;34859;51.608;11.462;2023-08-17T08:07:24;20.40;99.90
49042;DHT22;34859;51.608;11.462;2023-08-17T08:09:50;20.40;99.90
49042;DHT22;34859;51.608;11.462;2023-08-17T08:12:17;20.30;99.90
49042;DHT22;34859;51.608;11.462;2023-08-17T08:14:43;20.40;99.90
49042;DHT22;34859;51.608;11.462;2023-08-17T08:17:08;20.50;99.90
49042;DHT22;34859;51.608;11.462;2023-08-17T08:19:35;20.50;99.90
49042;DHT22;34859;51.608;11.462;2023-08-17T08:22:00;20.60;99.90
49042;DHT22;34859;51.608;11.462;2023-08-17T08:24:32;20.60;99.90
49042;DHT22;34859;51.608;11.462;2023-08-17T08:27:00;20.70;99.90
49042;DHT22;34859;51.608;11.462;2023-08-17T08:29:29;20.70;99.90
49042;DHT22;34859;51.608;11.462;2023-08-17T08:31:54;20.80;99.90
49042;DHT22;34859;51.608;11.462;2023-08-17T08:34:22;20.70;99.90
49042;DHT22;34859;51.608;11.462;2023-08-17T08:36:48;20.70;99.90
49042;DHT22;34859;51.608;11.462;2023-08-17T08:39:14;20.70;99.90
49042;DHT22;34859;51.608;11.462;2023-08-17T08:41:40;20.70;99.90
49042;DHT22;34859;51.608;11.462;2023-08-17T08:44:07;20.80;99.90
49042;DHT22;34859;51.608;11.462;2023-08-17T08:46:40;20.70;99.90
49042;DHT22;34859;51.608;11.462;2023-08-17T08:49:10;20.80;99.90
49042;DHT22;34859;51.608;11.462;2023-08-17T08:51:42;20.70;99.90
49042;DHT22;34859;51.608;11.462;2023-08-17T08:54:12;20.80;99.90
49042;DHT22;34859;51.608;11.462;2023-08-17T08:56:39;20.80;99.90
49042;DHT22;34859;51.608;11.462;2023-08-17T08:59:08;20.90;99.90
49042;DHT22;34859;51.608;11.462;2023-08-17T09:01:35;21.00;99.90
49042;DHT22;34859;51.608;11.462;2023-08-17T09:04:01;21.00;99.90
49042;DHT22;34859;51.608;11.462;2023-08-17T09:06:29;21.00;99.90
49042;DHT22;34859;51.608;11.462;2023-08-17T09:08:58;21.00;99.90
49042;DHT22;34859;51.608;11.462;2023-08-17T09:11:24;21.10;99.90
49042;DHT22;34859;51.608;11.462;2023-08-17T09:13:50;21.10;99.90
49042;DHT22;34859;51.608;11.462;2023-08-17T09:16:17;21.30;99.90
49042;DHT22;34859;51.608;11.462;2023-08-17T09:18:42;21.30;99.90
49042;DHT22;34859;51.608;11.462;2023-08-17T09:21:20;21.40;99.90
49042;DHT22;34859;51.608;11.462;2023-08-17T09:23:51;21.40;99.90
49042;DHT22;34859;51.608;11.462;2023-08-17T09:26:21;21.40;99.90
49042;DHT22;34859;51.608;11.462;2023-08-17T09:28:51;21.40;99.90
49042;DHT22;34859;51.608;11.462;2023-08-17T09:31:20;21.50;99.90
49042;DHT22;34859;51.608;11.462;2023-08-17T09:33:51;21.50;99.90
49042;DHT22;34859;51.608;11.462;2023-08-17T09:36:22;21.50;99.90
49042;DHT22;34859;51.608;11.462;2023-08-17T09:38:51;21.40;99.90
49042;DHT22;34859;51.608;11.462;2023-08-17T09:41:20;21.30;99.90
49042;DHT22;34859;51.608;11.462;2023-08-17T09:43:47;21.40;99.90
49042;DHT22;34859;51.608;11.462;2023-08-17T09:46:14;21.40;99.90
49042;DHT22;34859;51.608;11.462;2023-08-17T09:48:40;21.50;99.90
49042;DHT22;34859;51.608;11.462;2023-08-17T09:51:08;21.70;99.90
49042;DHT22;34859;51.608;11.462;2023-08-17T09:53:35;21.80;99.90
49042;DHT22;34859;51.608;11.462;2023-08-17T09:56:03;21.90;99.90
49042;DHT22;34859;51.608;11.462;2023-08-17T09:58:29;21.90;99.90
49042;DHT22;34859;51.608;11.462;2023-08-17T10:00:55;21.90;99.90
49042;DHT22;34859;51.608;11.462;2023-08-17T10:03:22;22.00;99.90
49042;DHT22;34859;51.608;11.462;2023-08-17T10:05:55;21.90;99.90
49042;DHT22;34859;51.608;11.462;2023-08-17T10:08:22;21.90;99.90
49042;DHT22;34859;51.608;11.462;2023-08-17T10:10:49;22.00;99.90
49042;DHT22;34859;51.608;11.462;2023-08-17T10:14:13;22.00;99.90
49042;DHT22;34859;51.608;11.462;2023-08-17T10:21:40;22.30;99.90
49042;DHT22;34859;51.608;11.462;2023-08-17T10:24:09;22.40;99.90
49042;DHT22;34859;51.608;11.462;2023-08-17T10:26:37;22.30;99.90
49042;DHT22;34859;51.608;11.462;2023-08-17T10:29:03;22.30;99.90
49042;DHT22;34859;51.608;11.462;2023-08-17T10:31:29;22.40;99.90
49042;DHT22;34859;51.608;11.462;2023-08-17T10:33:58;22.60;99.90
49042;DHT22;34859;51.608;11.462;2023-08-17T10:36:24;22.80;99.90
49042;DHT22;34859;51.608;11.462;2023-08-17T10:39:19;22.80;99.90
49042;DHT22;34859;51.608;11.462;2023-08-17T10:41:49;23.00;99.90
49042;DHT22;34859;51.608;11.462;2023-08-17T10:44:17;22.90;99.90
49042;DHT22;34859;51.608;11.462;2023-08-17T10:46:43;22.90;99.90
49042;DHT22;34859;51.608;11.462;2023-08-17T10:49:26;22.90;99.90
49042;DHT22;34859;51.608;11.462;2023-08-17T10:52:06;22.90;99.90
49042;DHT22;34859;51.608;11.462;2023-08-17T10:54:43;22.90;99.90
49042;DHT22;34859;51.608;11.462;2023-08-17T11:00:25;22.90;99.90
49042;DHT22;34859;51.608;11.462;2023-08-17T11:03:00;22.80;99.90
49042;DHT22;34859;51.608;11.462;2023-08-17T11:05:41;22.90;99.90
49042;DHT22;34859;51.608;11.462;2023-08-17T11:08:10;22.90;99.90
49042;DHT22;34859;51.608;11.462;2023-08-17T11:10:37;23.00;99.90
49042;DHT22;34859;51.608;11.462;2023-08-17T11:13:04;23.00;99.90
49042;DHT22;34859;51.608;11.462;2023-08-17T11:15:38;22.90;99.90
49042;DHT22;34859;51.608;11.462;2023-08-17T11:18:08;22.80;99.90
49042;DHT22;34859;51.608;11.462;2023-08-17T11:20:36;22.90;99.90
49042;DHT22;34859;51.608;11.462;2023-08-17T11:23:04;23.10;99.90
49042;DHT22;34859;51.608;11.462;2023-08-17T11:25:31;23.20;99.90
49042;DHT22;34859;51.608;11.462;2023-08-17T11:28:00;23.10;99.90
49042;DHT22;34859;51.608;11.462;2023-08-17T11:30:28;23.10;99.90
49042;DHT22;34859;51.608;11.462;2023-08-17T11:32:56;23.00;99.90
49042;DHT22;34859;51.608;11.462;2023-08-17T11:35:22;22.90;99.90
49042;DHT22;34859;51.608;11.462;2023-08-17T11:38:07;22.90;99.90
49042;DHT22;34859;51.608;11.462;2023-08-17T11:40:53;22.90;99.90
49042;DHT22;34859;51.608;11.462;2023-08-17T11:43:39;23.10;99.90
49042;DHT22;34859;51.608;11.462;2023-08-17T11:46:24;23.20;99.90
49042;DHT22;34859;51.608;11.462;2023-08-17T11:48:51;23.40;99.90
49042;DHT22;34859;51.608;11.462;2023-08-17T11:51:28;23.40;99.90
49042;DHT22;34859;51.608;11.462;2023-08-17T11:53:58;23.60;99.90
49042;DHT22;34859;51.608;11.462;2023-08-17T11:56:25;23.80;99.90
49042;DHT22;34859;51.608;11.462;2023-08-17T11:58:50;23.90;99.90
49042;DHT22;34859;51.608;11.462;2023-08-17T12:01:20;24.20;99.90
49042;DHT22;34859;51.608;11.462;2023-08-17T12:03:48;24.30;99.90
49042;DHT22;34859;51.608;11.462;2023-08-17T12:06:16;24.30;99.90
49042;DHT22;34859;51.608;11.462;2023-08-17T12:08:46;24.20;99.90
49042;DHT22;34859;51.608;11.462;2023-08-17T12:11:12;24.20;99.90
49042;DHT22;34859;51.608;11.462;2023-08-17T12:13:38;24.30;99.90
49042;DHT22;34859;51.608;11.462;2023-08-17T12:16:04;24.20;99.90
49042;DHT22;34859;51.608;11.462;2023-08-17T12:18:33;24.10;99.90
49042;DHT22;34859;51.608;11.462;2023-08-17T12:20:59;24.00;99.90
49042;DHT22;34859;51.608;11.462;2023-08-17T12:23:28;23.80;99.90
49042;DHT22;34859;51.608;11.462;2023-08-17T12:25:54;23.70;99.90
49042;DHT22;34859;51.608;11.462;2023-08-17T12:28:21;23.60;99.90
49042;DHT22;34859;51.608;11.462;2023-08-17T12:31:00;23.50;99.90
49042;DHT22;34859;51.608;11.462;2023-08-17T12:33:28;23.60;99.90
49042;DHT22;34859;51.608;11.462;2023-08-17T12:35:54;23.50;99.90
49042;DHT22;34859;51.608;11.462;2023-08-17T12:38:21;23.60;99.90
49042;DHT22;34859;51.608;11.462;2023-08-17T12:40:47;23.60;99.90
49042;DHT22;34859;51.608;11.462;2023-08-17T12:43:12;23.50;99.90
49042;DHT22;34859;51.608;11.462;2023-08-17T12:45:38;23.40;99.90
49042;DHT22;34859;51.608;11.462;2023-08-17T12:48:04;23.40;99.90
49042;DHT22;34859;51.608;11.462;2023-08-17T12:50:32;23.40;99.90
49042;DHT22;34859;51.608;11.462;2023-08-17T12:52:58;23.30;99.90
49042;DHT22;34859;51.608;11.462;2023-08-17T12:55:24;23.30;99.90
49042;DHT22;34859;51.608;11.462;2023-08-17T12:57:49;23.30;99.90
49042;DHT22;34859;51.608;11.462;2023-08-17T13:00:17;23.40;99.90
49042;DHT22;34859;51.608;11.462;2023-08-17T13:02:43;23.40;99.90
49042;DHT22;34859;51.608;11.462;2023-08-17T13:05:10;23.40;99.90
49042;DHT22;34859;51.608;11.462;2023-08-17T13:07:41;23.40;99.90
49042;DHT22;34859;51.608;11.462;2023-08-17T13:10:07;23.30;99.90
49042;DHT22;34859;51.608;11.462;2023-08-17T13:12:47;23.30;99.90
49042;DHT22;34859;51.608;11.462;2023-08-17T13:15:13;23.20;99.90
49042;DHT22;34859;51.608;11.462;2023-08-17T13:17:40;23.20;99.90
49042;DHT22;34859;51.608;11.462;2023-08-17T13:20:07;23.20;99.90
49042;DHT22;34859;51.608;11.462;2023-08-17T13:22:34;23.20;99.90
49042;DHT22;34859;51.608;11.462;2023-08-17T13:25:00;23.20;99.90
49042;DHT22;34859;51.608;11.462;2023-08-17T13:27:28;23.20;99.90
49042;DHT22;34859;51.608;11.462;2023-08-17T13:29:53;23.20;99.90
49042;DHT22;34859;51.608;11.462;2023-08-17T13:32:21;23.10;99.90
49042;DHT22;34859;51.608;11.462;2023-08-17T13:34:47;23.10;99.90
49042;DHT22;34859;51.608;11.462;2023-08-17T13:37:12;23.10;99.90
49042;DHT22;34859;51.608;11.462;2023-08-17T13:39:38;23.10;99.90
49042;DHT22;34859;51.608;11.462;2023-08-17T13:42:04;23.20;99.90
49042;DHT22;34859;51.608;11.462;2023-08-17T13:44:30;23.20;99.90
49042;DHT22;34859;51.608;11.462;2023-08-17T13:46:57;23.30;99.90
49042;DHT22;34859;51.608;11.462;2023-08-17T13:49:23;23.30;99.90
49042;DHT22;34859;51.608;11.462;2023-08-17T13:51:48;23.30;99.90
49042;DHT22;34859;51.608;11.462;2023-08-17T13:54:14;23.30;99.90
49042;DHT22;34859;51.608;11.462;2023-08-17T13:56:40;23.30;99.90
49042;DHT22;34859;51.608;11.462;2023-08-17T13:59:07;23.20;99.90
49042;DHT22;34859;51.608;11.462;2023-08-17T14:01:32;23.20;99.90
49042;DHT22;34859;51.608;11.462;2023-08-17T14:03:59;23.20;99.90
49042;DHT22;34859;51.608;11.462;2023-08-17T14:06:28;23.20;99.90
49042;DHT22;34859;51.608;11.462;2023-08-17T14:08:53;23.30;99.90
49042;DHT22;34859;51.608;11.462;2023-08-17T14:11:19;23.30;99.90
49042;DHT22;34859;51.608;11.462;2023-08-17T14:13:45;23.30;99.90
49042;DHT22;34859;51.608;11.462;2023-08-17T14:16:10;23.20;99.90
49042;DHT22;34859;51.608;11.462;2023-08-17T14:18:37;23.20;99.90
49042;DHT22;34859;51.608;11.462;2023-08-17T14:21:02;23.30;99.90
49042;DHT22;34859;51.608;11.462;2023-08-17T14:23:31;23.30;99.90
49042;DHT22;34859;51.608;11.462;2023-08-17T14:25:57;23.30;99.90
49042;DHT22;34859;51.608;11.462;2023-08-17T14:28:23;23.40;99.90
49042;DHT22;34859;51.608;11.462;2023-08-17T14:30:48;23.40;99.90
49042;DHT22;34859;51.608;11.462;2023-08-17T14:33:14;23.30;99.90
49042;DHT22;34859;51.608;11.462;2023-08-17T14:35:40;23.30;99.90
49042;DHT22;34859;51.608;11.462;2023-08-17T14:38:10;23.30;99.90
49042;DHT22;34859;51.608;11.462;2023-08-17T14:40:42;23.40;99.90
49042;DHT22;34859;51.608;11.462;2023-08-17T14:45:39;23.40;99.90
49042;DHT22;34859;51.608;11.462;2023-08-17T14:48:05;23.40;99.90
49042;DHT22;34859;51.608;11.462;2023-08-17T14:50:31;23.40;99.90
49042;DHT22;34859;51.608;11.462;2023-08-17T14:52:57;23.50;99.90
49042;DHT22;34859;51.608;11.462;2023-08-17T14:55:22;23.50;99.90
49042;DHT22;34859;51.608;11.462;2023-08-17T14:57:49;23.60;99.90
49042;DHT22;34859;51.608;11.462;2023-08-17T15:00:14;23.60;99.90
49042;DHT22;34859;51.608;11.462;2023-08-17T15:02:40;23.60;99.90
49042;DHT22;34859;51.608;11.462;2023-08-17T15:05:10;23.70;99.90
49042;DHT22;34859;51.608;11.462;2023-08-17T15:07:37;23.70;99.90
49042;DHT22;34859;51.608;11.462;2023-08-17T15:10:03;23.70;99.90
49042;DHT22;34859;51.608;11.462;2023-08-17T15:12:28;23.70;99.90
49042;DHT22;34859;51.608;11.462;2023-08-17T15:14:54;23.80;99.90
49042;DHT22;34859;51.608;11.462;2023-08-17T15:17:20;23.90;99.90
49042;DHT22;34859;51.608;11.462;2023-08-17T15:20:06;24.00;99.90
49042;DHT22;34859;51.608;11.462;2023-08-17T15:22:32;24.00;99.90
49042;DHT22;34859;51.608;11.462;2023-08-17T15:24:58;24.10;99.90
49042;DHT22;34859;51.608;11.462;2023-08-17T15:27:24;24.20;99.90
49042;DHT22;34859;51.608;11.462;2023-08-17T15:29:50;24.10;99.90
49042;DHT22;34859;51.608;11.462;2023-08-17T15:32:17;24.10;99.90
49042;DHT22;34859;51.608;11.462;2023-08-17T15:34:43;24.00;99.90
49042;DHT22;34859;51.608;11.462;2023-08-17T15:37:08;23.90;99.90